createdAt,value
2019-03-26T00:02:31.061Z,100581.66
2019-03-26T00:05:33.002Z,100578.19
2019-03-26T00:08:34.938Z,100579.02
2019-03-26T00:11:36.829Z,100578.80
2019-03-26T00:14:38.826Z,100573.28
2019-03-26T00:17:40.738Z,100586.43
2019-03-26T00:20:42.693Z,100583.34
2019-03-26T00:23:44.680Z,100583.64
2019-03-26T00:26:46.644Z,100588.08
2019-03-26T00:29:48.587Z,100592.34
2019-03-26T00:32:50.508Z,100596.14
2019-03-26T00:35:52.447Z,100600.81
2019-03-26T00:38:54.399Z,100610.73
2019-03-26T00:41:56.407Z,100608.08
2019-03-26T00:44:58.368Z,100611.05
2019-03-26T00:48:00.258Z,100612.27
2019-03-26T00:51:02.185Z,100612.20
2019-03-26T00:54:04.086Z,100624.91
2019-03-26T00:57:06.064Z,100631.62
2019-03-26T01:00:09.392Z,100624.45
2019-03-26T01:03:11.477Z,100632.80
2019-03-26T01:06:13.431Z,100637.17
2019-03-26T01:09:15.358Z,100635.06
2019-03-26T01:12:17.284Z,100637.33
2019-03-26T01:15:19.267Z,100639.22
2019-03-26T01:18:21.142Z,100642.38
2019-03-26T01:21:23.107Z,100654.70
2019-03-26T01:24:25.097Z,100649.19
2019-03-26T01:27:27.030Z,100658.96
2019-03-26T01:30:29.124Z,100657.45
2019-03-26T01:33:31.001Z,100662.28
2019-03-26T01:36:32.985Z,100649.81
2019-03-26T01:39:34.874Z,100669.09
2019-03-26T01:42:36.823Z,100666.98
2019-03-26T01:45:38.702Z,100674.77
2019-03-26T01:48:40.609Z,100670.39
2019-03-26T01:51:42.521Z,100681.12
2019-03-26T01:54:44.480Z,100675.13
2019-03-26T01:57:46.401Z,100667.42
2019-03-26T02:00:48.592Z,100678.19
2019-03-26T02:03:50.503Z,100676.74
2019-03-26T02:06:52.410Z,100688.46
2019-03-26T02:09:54.371Z,100688.25
2019-03-26T02:12:56.329Z,100696.18
2019-03-26T02:15:59.429Z,100700.70
2019-03-26T02:19:01.401Z,100695.50
2019-03-26T02:22:04.632Z,100701.11
2019-03-26T02:25:06.729Z,100707.38
2019-03-26T02:28:08.618Z,100702.91
2019-03-26T02:31:10.584Z,100699.72
2019-03-26T02:34:12.511Z,100706.61
2019-03-26T02:37:14.423Z,100702.35
2019-03-26T02:40:16.348Z,100707.80
2019-03-26T02:43:18.276Z,100709.62
2019-03-26T02:46:20.284Z,100718.09
2019-03-26T02:49:22.221Z,100717.59
2019-03-26T02:52:24.198Z,100734.44
2019-03-26T02:55:26.105Z,100728.78
2019-03-26T02:58:28.084Z,100730.06
2019-03-26T03:01:30.250Z,100726.61
2019-03-26T03:04:32.202Z,100729.08
2019-03-26T03:07:34.147Z,100723.27
2019-03-26T03:10:36.083Z,100722.96
2019-03-26T03:13:38.040Z,100723.41
2019-03-26T03:16:40.034Z,100720.98
2019-03-26T03:19:42.001Z,100716.31
2019-03-26T03:22:43.942Z,100717.81
2019-03-26T03:25:45.890Z,100726.14
2019-03-26T03:28:47.957Z,100723.20
2019-03-26T03:31:49.928Z,100736.91
2019-03-26T03:34:51.959Z,100730.67
2019-03-26T03:37:53.898Z,100736.95
2019-03-26T03:40:55.928Z,100745.98
2019-03-26T03:43:57.825Z,100748.55
2019-03-26T03:47:01.367Z,100753.38
2019-03-26T03:50:05.542Z,100755.96
2019-03-26T03:53:08.711Z,100757.78
2019-03-26T03:56:13.246Z,100771.56
2019-03-26T03:59:16.022Z,100764.35
2019-03-26T04:02:18.279Z,100762.78
2019-03-26T04:05:20.309Z,100757.09
2019-03-26T04:08:22.234Z,100755.57
2019-03-26T04:11:24.189Z,100763.53
2019-03-26T04:14:26.153Z,100753.68
2019-03-26T04:17:28.145Z,100756.56
2019-03-26T04:20:30.031Z,100769.11
2019-03-26T04:23:33.309Z,100767.75
2019-03-26T04:26:36.087Z,100781.98
2019-03-26T04:29:40.906Z,100772.00
2019-03-26T04:32:42.907Z,100782.89
2019-03-26T04:35:44.867Z,100790.31
2019-03-26T04:38:46.865Z,100790.02
2019-03-26T04:41:48.824Z,100797.20
2019-03-26T04:44:50.803Z,100802.81
2019-03-26T04:47:52.763Z,100801.83
2019-03-26T04:50:54.787Z,100798.94
2019-03-26T04:53:56.767Z,100799.39
2019-03-26T04:56:58.841Z,100804.55
2019-03-26T05:00:00.744Z,100807.20
2019-03-26T05:03:02.914Z,100814.84
2019-03-26T05:06:04.842Z,100809.68
2019-03-26T05:09:06.831Z,100802.73
2019-03-26T05:12:08.749Z,100803.64
2019-03-26T05:15:11.121Z,100804.63
2019-03-26T05:18:13.043Z,100805.14
2019-03-26T05:21:16.318Z,100805.38
2019-03-26T05:24:18.289Z,100809.55
2019-03-26T05:27:22.159Z,100819.53
2019-03-26T05:30:24.667Z,100817.39
2019-03-26T05:33:27.830Z,100815.12
2019-03-26T05:36:29.882Z,100816.81
2019-03-26T05:39:31.827Z,100816.65
2019-03-26T05:42:33.789Z,100815.90
2019-03-26T05:45:35.873Z,100824.69
2019-03-26T05:48:37.773Z,100831.50
2019-03-26T05:51:39.750Z,100826.80
2019-03-26T05:54:41.665Z,100825.59
2019-03-26T05:57:43.597Z,100828.32
2019-03-26T06:00:45.551Z,100825.83
2019-03-26T06:03:47.713Z,100830.13
2019-03-26T06:06:49.711Z,100821.66
2019-03-26T06:09:51.661Z,100815.71
2019-03-26T06:12:53.694Z,100811.91
2019-03-26T06:15:55.698Z,100813.69
2019-03-26T06:18:57.690Z,100813.73
2019-03-26T06:21:59.625Z,100803.59
2019-03-26T06:25:01.544Z,100803.83
2019-03-26T06:28:03.538Z,100811.19
2019-03-26T06:31:05.484Z,100808.03
2019-03-26T06:34:10.383Z,100810.34
2019-03-26T06:37:17.692Z,100820.05
2019-03-26T06:40:15.657Z,100815.80
2019-03-26T06:43:17.624Z,100822.44
2019-03-26T06:46:19.535Z,100823.80
2019-03-26T06:49:21.584Z,100806.30
2019-03-26T06:52:23.566Z,100821.55
2019-03-26T06:55:25.614Z,100820.16
2019-03-26T06:58:28.637Z,100820.54
2019-03-26T07:01:30.879Z,100826.30
2019-03-26T07:04:32.984Z,100823.73
2019-03-26T07:07:35.008Z,100819.91
2019-03-26T07:10:38.312Z,100826.85
2019-03-26T07:13:40.270Z,100825.52
2019-03-26T07:16:42.215Z,100816.86
2019-03-26T07:19:44.184Z,100811.48
2019-03-26T07:22:46.154Z,100815.23
2019-03-26T07:25:48.100Z,100815.67
2019-03-26T07:28:50.088Z,100808.14
2019-03-26T07:31:52.023Z,100816.21
2019-03-26T07:34:54.107Z,100800.88
2019-03-26T07:37:56.045Z,100802.44
2019-03-26T07:40:58.070Z,100804.41
2019-03-26T07:44:00.085Z,100807.72
2019-03-26T07:47:02.057Z,100799.98
2019-03-26T07:50:06.166Z,100782.42
2019-03-26T07:53:08.166Z,100797.53
2019-03-26T07:56:10.096Z,100797.61
2019-03-26T07:59:12.070Z,100797.61
2019-03-26T08:02:14.038Z,100790.45
2019-03-26T08:05:29.060Z,100788.80
2019-03-26T08:08:19.997Z,100782.87
2019-03-26T08:11:22.001Z,100774.14
2019-03-26T08:14:23.933Z,100771.33
2019-03-26T08:17:25.998Z,100765.28
2019-03-26T08:20:27.912Z,100767.42
2019-03-26T08:23:29.838Z,100756.96
2019-03-26T08:26:32.079Z,100768.48
2019-03-26T08:29:34.066Z,100759.53
2019-03-26T08:32:37.255Z,100754.47
2019-03-26T08:35:41.079Z,100747.62
2019-03-26T08:38:43.001Z,100747.30
2019-03-26T08:41:45.019Z,100747.91
2019-03-26T08:44:46.998Z,100741.56
2019-03-26T08:47:50.446Z,100743.16
2019-03-26T08:50:52.382Z,100737.72
2019-03-26T08:53:54.363Z,100738.52
2019-03-26T08:56:56.344Z,100726.64
2019-03-26T08:59:58.261Z,100731.52
2019-03-26T09:03:00.229Z,100736.00
2019-03-26T09:06:02.425Z,100742.75
2019-03-26T09:09:06.405Z,100744.55
2019-03-26T09:12:08.348Z,100744.35
2019-03-26T09:15:14.061Z,100752.42
2019-03-26T09:18:14.590Z,100730.72
2019-03-26T09:21:16.591Z,100746.92
2019-03-26T09:24:18.515Z,100740.27
2019-03-26T09:27:21.027Z,100723.41
2019-03-26T09:30:22.940Z,100711.83
2019-03-26T09:33:24.875Z,100729.61
2019-03-26T09:36:26.841Z,100722.33
2019-03-26T09:39:28.884Z,100727.63
2019-03-26T09:42:30.885Z,100725.19
2019-03-26T09:45:32.917Z,100722.87
2019-03-26T09:48:34.901Z,100697.59
2019-03-26T09:51:36.874Z,100710.00
2019-03-26T09:54:38.801Z,100711.78
2019-03-26T09:57:40.773Z,100705.31
2019-03-26T10:00:42.843Z,100699.51
2019-03-26T10:03:45.013Z,100677.84
2019-03-26T10:06:47.197Z,100694.26
2019-03-26T10:09:49.208Z,100684.22
2019-03-26T10:12:51.240Z,100697.71
2019-03-26T10:15:53.350Z,100686.13
2019-03-26T10:18:55.313Z,100669.82
2019-03-26T10:21:57.278Z,100687.21
2019-03-26T10:24:59.272Z,100668.38
2019-03-26T10:28:01.324Z,100681.81
2019-03-26T10:31:03.248Z,100695.22
2019-03-26T10:34:05.204Z,100667.14
2019-03-26T10:37:08.293Z,100679.14
2019-03-26T10:40:13.940Z,100679.64
2019-03-26T10:43:15.890Z,100669.53
2019-03-26T10:46:18.352Z,100651.00
2019-03-26T10:49:20.323Z,100677.83
2019-03-26T10:52:22.252Z,100656.97
2019-03-26T10:55:24.237Z,100667.52
2019-03-26T10:58:26.166Z,100656.77
2019-03-26T11:01:28.152Z,100662.16
2019-03-26T11:04:30.476Z,100660.77
2019-03-26T11:07:32.804Z,100667.37
2019-03-26T11:10:37.826Z,100665.38
2019-03-26T11:13:39.879Z,100656.33
2019-03-26T11:16:41.831Z,100662.28
2019-03-26T11:19:46.565Z,100676.19
2019-03-26T11:22:48.664Z,100683.41
2019-03-26T11:25:50.756Z,100679.28
2019-03-26T11:28:52.801Z,100664.55
2019-03-26T11:31:54.868Z,100702.81
2019-03-26T11:34:56.851Z,100705.31
2019-03-26T11:37:58.948Z,100695.07
2019-03-26T11:41:00.936Z,100702.39
2019-03-26T11:44:04.685Z,100703.87
2019-03-26T11:47:06.932Z,100713.56
2019-03-26T11:50:11.070Z,100722.07
2019-03-26T11:53:13.055Z,100716.08
2019-03-26T11:56:15.094Z,100708.56
2019-03-26T11:59:17.010Z,100701.22
2019-03-26T12:02:18.990Z,100721.84
2019-03-26T12:05:21.671Z,100728.42
2019-03-26T12:08:23.840Z,100727.88
2019-03-26T12:11:25.796Z,100711.05
2019-03-26T12:14:27.878Z,100710.71
2019-03-26T12:17:29.873Z,100706.65
2019-03-26T12:20:31.912Z,100711.10
2019-03-26T12:23:33.838Z,100730.34
2019-03-26T12:26:35.911Z,100705.62
2019-03-26T12:29:37.910Z,100713.60
2019-03-26T12:32:41.229Z,100710.31
2019-03-26T12:35:43.513Z,100707.81
2019-03-26T12:38:45.609Z,100705.66
2019-03-26T12:41:47.547Z,100711.10
2019-03-26T12:44:49.552Z,100703.78
2019-03-26T12:47:51.489Z,100712.02
2019-03-26T12:50:53.519Z,100710.37
2019-03-26T12:53:55.452Z,100700.77
2019-03-26T12:56:57.520Z,100688.44
2019-03-26T13:00:00.823Z,100694.30
2019-03-26T13:03:02.744Z,100694.28
2019-03-26T13:06:04.656Z,100689.97
2019-03-26T13:09:07.936Z,100683.39
2019-03-26T13:12:09.832Z,100683.66
2019-03-26T13:15:11.839Z,100679.27
2019-03-26T13:18:13.763Z,100678.78
2019-03-26T13:21:15.703Z,100659.02
2019-03-26T13:24:17.624Z,100668.10
2019-03-26T13:27:19.579Z,100662.39
2019-03-26T13:30:24.573Z,100654.72
2019-03-26T13:33:26.591Z,100641.73
2019-03-26T13:36:28.554Z,100631.03
2019-03-26T13:39:30.596Z,100627.53
2019-03-26T13:42:32.574Z,100634.11
2019-03-26T13:45:34.549Z,100631.55
2019-03-26T13:48:37.597Z,100618.44
2019-03-26T13:51:39.594Z,100621.21
2019-03-26T13:54:41.542Z,100627.22
2019-03-26T13:57:43.533Z,100618.20
2019-03-26T14:00:45.559Z,100623.02
2019-03-26T14:03:47.762Z,100604.16
2019-03-26T14:06:52.369Z,100614.22
2019-03-26T14:09:53.800Z,100625.30
2019-03-26T14:12:55.796Z,100624.24
2019-03-26T14:15:57.770Z,100621.89
2019-03-26T14:18:59.781Z,100617.80
2019-03-26T14:22:02.242Z,100620.28
2019-03-26T14:25:04.323Z,100621.10
2019-03-26T14:28:06.243Z,100604.16
2019-03-26T14:31:08.299Z,100607.91
2019-03-26T14:34:10.852Z,100603.64
2019-03-26T14:37:12.869Z,100610.16
2019-03-26T14:40:15.076Z,100609.42
2019-03-26T14:43:17.117Z,100620.26
2019-03-26T14:46:19.110Z,100619.61
2019-03-26T14:49:21.106Z,100606.82
2019-03-26T14:52:23.129Z,100626.31
2019-03-26T14:55:25.082Z,100608.30
2019-03-26T14:58:27.021Z,100615.77
2019-03-26T15:01:28.964Z,100600.48
2019-03-26T15:04:30.890Z,100602.09
2019-03-26T15:07:32.839Z,100602.75
2019-03-26T15:10:34.891Z,100599.53
2019-03-26T15:13:36.812Z,100608.95
2019-03-26T15:16:38.729Z,100609.16
2019-03-26T15:19:40.673Z,100594.77
2019-03-26T15:22:42.584Z,100589.56
2019-03-26T15:25:44.626Z,100585.38
2019-03-26T15:28:47.715Z,100592.19
2019-03-26T15:31:50.029Z,100596.23
2019-03-26T15:34:53.177Z,100593.26
2019-03-26T15:37:55.456Z,100597.09
2019-03-26T15:40:57.441Z,100591.53
2019-03-26T15:43:59.318Z,100588.88
2019-03-26T15:47:01.298Z,100586.23
2019-03-26T15:50:06.072Z,100602.34
2019-03-26T15:53:08.197Z,100603.27
2019-03-26T15:56:10.110Z,100592.55
2019-03-26T15:59:12.056Z,100603.17
2019-03-26T16:02:13.917Z,100594.92
2019-03-26T16:05:15.859Z,100593.28
2019-03-26T16:08:18.970Z,100596.71
2019-03-26T16:11:34.771Z,100597.17
2019-03-26T16:14:27.990Z,100600.41
2019-03-26T16:17:28.777Z,100574.14
2019-03-26T16:20:30.633Z,100590.38
2019-03-26T16:23:32.601Z,100591.55
2019-03-26T16:26:34.469Z,100604.92
2019-03-26T16:29:36.429Z,100611.75
2019-03-26T16:32:38.367Z,100608.16
2019-03-26T16:35:40.573Z,100607.88
2019-03-26T16:38:43.942Z,100607.10
2019-03-26T16:41:49.331Z,100614.50
2019-03-26T16:44:51.636Z,100608.88
2019-03-26T16:47:54.023Z,100610.70
2019-03-26T16:50:56.817Z,100616.82
2019-03-26T16:53:59.770Z,100618.73
2019-03-26T16:57:03.308Z,100626.70
2019-03-26T17:00:07.550Z,100626.70
2019-03-26T17:03:11.560Z,100626.53
2019-03-26T17:06:14.274Z,100630.59
2019-03-26T17:09:16.509Z,100630.64
2019-03-26T17:12:18.593Z,100629.55
2019-03-26T17:15:21.810Z,100627.53
2019-03-26T17:18:23.748Z,100627.25
2019-03-26T17:21:25.676Z,100624.70
2019-03-26T17:24:27.584Z,100637.22
2019-03-26T17:27:29.519Z,100638.83
2019-03-26T17:30:31.447Z,100646.53
2019-03-26T17:33:33.406Z,100644.34
2019-03-26T17:36:35.312Z,100647.31
2019-03-26T17:39:37.994Z,100656.55
2019-03-26T17:42:42.302Z,100667.33
2019-03-26T17:45:44.332Z,100691.06
2019-03-26T17:48:48.127Z,100688.06
2019-03-26T17:51:50.506Z,100681.95
2019-03-26T17:54:52.434Z,100693.20
2019-03-26T17:57:54.349Z,100691.57
2019-03-26T18:00:57.361Z,100698.18
2019-03-26T18:04:02.925Z,100689.97
2019-03-26T18:07:05.612Z,100697.97
2019-03-26T18:10:09.817Z,100679.62
2019-03-26T18:13:16.561Z,100687.63
2019-03-26T18:16:18.547Z,100692.32
2019-03-26T18:19:25.064Z,100696.31
2019-03-26T18:22:28.104Z,100696.91
2019-03-26T18:25:30.289Z,100706.66
2019-03-26T18:28:32.570Z,100721.95
2019-03-26T18:31:34.472Z,100720.14
2019-03-26T18:34:39.722Z,100730.96
2019-03-26T18:37:41.673Z,100735.23
2019-03-26T18:40:44.349Z,100750.09
2019-03-26T18:43:47.689Z,100757.16
2019-03-26T18:46:53.220Z,100778.58
2019-03-26T18:49:55.185Z,100793.95
2019-03-26T18:52:59.095Z,100795.34
2019-03-26T18:56:01.052Z,100797.53
2019-03-26T18:59:03.220Z,100807.68
2019-03-26T19:02:05.176Z,100813.16
2019-03-26T19:05:08.277Z,100821.62
2019-03-26T19:08:10.157Z,100811.48
2019-03-26T19:11:12.219Z,100820.10
2019-03-26T19:14:14.548Z,100816.63
2019-03-26T19:17:16.531Z,100816.70
2019-03-26T19:20:20.071Z,100811.31
2019-03-26T19:23:25.092Z,100816.91
2019-03-26T19:26:29.883Z,100806.48
2019-03-26T19:29:32.924Z,100804.52
2019-03-26T19:32:35.070Z,100816.11
2019-03-26T19:35:37.028Z,100809.36
2019-03-26T19:38:39.027Z,100817.45
2019-03-26T19:41:43.131Z,100833.71
2019-03-26T19:44:45.122Z,100841.00
2019-03-26T19:47:47.379Z,100847.45
2019-03-26T19:50:51.200Z,100857.00
2019-03-26T19:53:53.186Z,100865.71
2019-03-26T19:56:56.309Z,100865.79
2019-03-26T19:59:58.324Z,100860.34
2019-03-26T20:03:01.903Z,100864.36
2019-03-26T20:06:13.379Z,100867.82
2019-03-26T20:09:13.036Z,100875.03
2019-03-26T20:12:21.647Z,100877.37
2019-03-26T20:15:25.808Z,100878.64
2019-03-26T20:18:28.084Z,100876.68
2019-03-26T20:21:31.441Z,100893.80
2019-03-26T20:24:33.487Z,100895.71
2019-03-26T20:27:36.004Z,100896.62
2019-03-26T20:30:38.612Z,100902.73
2019-03-26T20:33:42.705Z,100906.00
2019-03-26T20:36:47.328Z,100917.52
2019-03-26T20:39:51.062Z,100910.78
2019-03-26T20:42:55.552Z,100917.97
2019-03-26T20:45:57.548Z,100929.78
2019-03-26T20:48:59.507Z,100937.55
2019-03-26T20:52:01.429Z,100932.92
2019-03-26T20:55:08.621Z,100938.23
2019-03-26T20:58:10.573Z,100943.06
2019-03-26T21:01:16.531Z,100954.86
2019-03-26T21:04:21.056Z,100957.80
2019-03-26T21:07:24.352Z,100960.94
2019-03-26T21:10:28.151Z,100969.05
2019-03-26T21:13:30.161Z,100975.41
2019-03-26T21:16:32.558Z,100970.08
2019-03-26T21:19:34.882Z,100978.31
2019-03-26T21:22:37.396Z,100984.87
2019-03-26T21:25:39.346Z,100988.48
2019-03-26T21:28:41.377Z,100997.73
2019-03-26T21:31:43.310Z,100994.26
2019-03-26T21:34:45.378Z,101005.00
2019-03-26T21:37:47.472Z,101011.47
2019-03-26T21:40:49.469Z,101008.91
2019-03-26T21:44:03.602Z,101017.86
2019-03-26T21:46:55.281Z,101016.05
2019-03-26T21:49:57.207Z,101017.20
2019-03-26T21:53:01.067Z,101022.50
2019-03-26T21:56:06.882Z,101029.87
2019-03-26T21:59:07.437Z,101027.77
2019-03-26T22:02:09.473Z,101028.36
2019-03-26T22:05:11.641Z,101027.57
2019-03-26T22:08:13.543Z,101024.91
2019-03-26T22:11:15.658Z,101032.16
2019-03-26T22:14:18.620Z,101037.91
2019-03-26T22:17:21.108Z,101044.08
2019-03-26T22:20:23.059Z,101043.18
2019-03-26T22:23:25.063Z,101043.95
2019-03-26T22:26:27.037Z,101047.91
2019-03-26T22:29:29.072Z,101051.94
2019-03-26T22:32:31.024Z,101053.31
2019-03-26T22:35:32.991Z,101052.04
2019-03-26T22:38:34.924Z,101065.38
2019-03-26T22:41:38.155Z,101069.30
2019-03-26T22:44:40.076Z,101069.45
2019-03-26T22:47:42.159Z,101074.91
2019-03-26T22:50:44.070Z,101069.62
2019-03-26T22:53:46.029Z,101075.91
2019-03-26T22:56:48.006Z,101073.72
2019-03-26T22:59:50.024Z,101078.67
2019-03-26T23:02:51.968Z,101078.38
2019-03-26T23:05:53.876Z,101083.30
2019-03-26T23:08:55.872Z,101087.47
2019-03-26T23:11:57.804Z,101091.86
2019-03-26T23:15:00.510Z,101110.52
2019-03-26T23:18:02.797Z,101105.22
2019-03-26T23:21:04.791Z,101104.92
2019-03-26T23:24:06.753Z,101106.91
2019-03-26T23:27:08.917Z,101121.13
2019-03-26T23:30:11.874Z,101115.23
2019-03-26T23:33:15.094Z,101120.27
2019-03-26T23:36:17.128Z,101120.56
2019-03-26T23:39:19.120Z,101119.82
2019-03-26T23:42:21.078Z,101123.41
2019-03-26T23:45:23.112Z,101129.94
2019-03-26T23:48:25.160Z,101124.27
2019-03-26T23:51:27.167Z,101134.02
2019-03-26T23:54:29.108Z,101134.50
2019-03-26T23:57:31.091Z,101137.14
